createdAt,value
2023-03-13T00:01:16.218Z,5.53
2023-03-13T00:03:44.949Z,4.00
2023-03-13T00:06:13.414Z,6.07
2023-03-13T00:08:41.932Z,9.13
2023-03-13T00:11:10.830Z,6.43
2023-03-13T00:13:40.810Z,5.70
2023-03-13T00:16:10.278Z,5.80
2023-03-13T00:18:39.056Z,5.77
2023-03-13T00:21:08.543Z,6.70
2023-03-13T00:23:38.452Z,8.70
2023-03-13T00:26:07.985Z,7.20
2023-03-13T00:28:37.226Z,6.50
2023-03-13T00:31:07.787Z,5.07
2023-03-13T00:33:37.037Z,6.60
2023-03-13T00:36:06.690Z,4.97
2023-03-13T00:38:35.421Z,8.77
2023-03-13T00:41:05.162Z,5.93
2023-03-13T00:43:36.175Z,5.50
2023-03-13T00:46:04.932Z,6.63
2023-03-13T00:48:34.907Z,5.07
2023-03-13T00:51:03.681Z,6.53
2023-03-13T00:53:32.920Z,4.00
2023-03-13T00:56:02.159Z,6.00
2023-03-13T00:58:31.509Z,6.67
2023-03-13T01:00:59.937Z,6.70
2023-03-13T01:03:28.530Z,10.93
2023-03-13T01:05:59.395Z,7.73
2023-03-13T01:08:28.334Z,6.93
2023-03-13T01:11:00.705Z,5.90
2023-03-13T01:13:29.438Z,10.63
2023-03-13T01:15:59.697Z,3.77
2023-03-13T01:18:28.214Z,7.50
2023-03-13T01:20:56.663Z,4.43
2023-03-13T01:23:26.475Z,7.47
2023-03-13T01:25:56.048Z,6.07
2023-03-13T01:28:25.054Z,6.47
2023-03-13T01:30:53.808Z,3.43
2023-03-13T01:33:22.313Z,5.93
2023-03-13T01:35:51.761Z,7.97
2023-03-13T01:38:20.779Z,8.03
2023-03-13T01:40:51.246Z,6.23
2023-03-13T01:43:27.063Z,5.47
2023-03-13T01:46:04.839Z,7.00
2023-03-13T01:48:44.142Z,7.27
2023-03-13T01:51:15.812Z,8.77
2023-03-13T01:53:45.287Z,6.63
2023-03-13T01:56:17.847Z,6.83
2023-03-13T01:58:46.548Z,5.40
2023-03-13T02:01:16.127Z,5.93
2023-03-13T02:03:45.507Z,3.50
2023-03-13T02:06:13.939Z,5.00
2023-03-13T02:08:44.125Z,6.50
2023-03-13T02:11:17.788Z,5.03
2023-03-13T02:13:48.807Z,3.50
2023-03-13T02:16:17.994Z,5.50
2023-03-13T02:18:50.107Z,3.00
2023-03-13T02:21:33.925Z,5.63
2023-03-13T02:24:06.225Z,3.30
2023-03-13T02:26:36.090Z,2.30
2023-03-13T02:29:04.679Z,4.87
2023-03-13T02:31:33.467Z,2.23
2023-03-13T02:34:02.558Z,1.67
2023-03-13T02:36:32.620Z,1.53
2023-03-13T02:39:03.362Z,3.30
2023-03-13T02:41:33.249Z,2.10
2023-03-13T02:44:03.100Z,3.63
2023-03-13T02:46:32.484Z,3.53
2023-03-13T02:49:00.923Z,5.70
2023-03-13T02:51:31.412Z,2.03
2023-03-13T02:54:02.351Z,3.13
2023-03-13T02:56:33.555Z,3.27
2023-03-13T02:59:03.953Z,3.87
2023-03-13T03:01:33.703Z,3.83
2023-03-13T03:04:02.141Z,3.00
2023-03-13T03:06:30.843Z,2.63
2023-03-13T03:08:59.388Z,2.40
2023-03-13T03:11:29.855Z,1.50
2023-03-13T03:14:05.353Z,3.60
2023-03-13T03:16:38.839Z,3.67
2023-03-13T03:19:08.126Z,2.63
2023-03-13T03:21:36.997Z,5.07
2023-03-13T03:24:05.753Z,2.93
2023-03-13T03:26:34.302Z,1.87
2023-03-13T03:29:07.960Z,2.13
2023-03-13T03:31:36.582Z,3.70
2023-03-13T03:34:05.000Z,3.60
2023-03-13T03:36:33.505Z,3.30
2023-03-13T03:39:03.751Z,2.23
2023-03-13T03:41:32.660Z,1.70
2023-03-13T03:44:01.586Z,2.87
2023-03-13T03:46:41.672Z,2.60
2023-03-13T03:49:10.433Z,4.37
2023-03-13T03:51:38.837Z,2.27
2023-03-13T03:54:07.473Z,6.80
2023-03-13T03:56:36.326Z,5.37
2023-03-13T03:59:05.045Z,3.67
2023-03-13T04:01:47.175Z,3.57
2023-03-13T04:04:19.981Z,3.03
2023-03-13T04:06:52.764Z,4.10
2023-03-13T04:09:21.602Z,2.93
2023-03-13T04:11:49.975Z,3.93
2023-03-13T04:14:18.511Z,2.83
2023-03-13T04:16:48.919Z,3.83
2023-03-13T04:19:17.637Z,2.87
2023-03-13T04:21:46.052Z,4.27
2023-03-13T04:24:18.536Z,4.17
2023-03-13T04:26:47.315Z,3.43
2023-03-13T04:29:16.876Z,2.97
2023-03-13T04:32:10.082Z,4.97
2023-03-13T04:34:57.291Z,4.80
2023-03-13T04:37:42.171Z,3.03
2023-03-13T04:40:29.202Z,5.60
2023-03-13T04:43:07.861Z,5.03
2023-03-13T04:46:02.391Z,4.43
2023-03-13T04:48:41.459Z,2.33
2023-03-13T04:51:31.404Z,2.37
2023-03-13T04:54:35.141Z,5.73
2023-03-13T04:57:22.454Z,1.50
2023-03-13T05:00:08.043Z,3.37
2023-03-13T05:02:46.106Z,2.70
2023-03-13T05:05:41.920Z,2.80
2023-03-13T05:08:39.816Z,3.50
2023-03-13T05:11:23.039Z,5.20
2023-03-13T05:14:04.563Z,4.63
2023-03-13T05:16:59.235Z,2.97
2023-03-13T05:20:06.099Z,3.23
2023-03-13T05:22:47.280Z,2.23
2023-03-13T05:25:21.364Z,3.70
2023-03-13T05:27:55.745Z,3.83
2023-03-13T05:30:37.910Z,3.47
2023-03-13T05:33:27.288Z,2.03
2023-03-13T05:36:17.346Z,2.90
2023-03-13T05:39:01.230Z,5.23
2023-03-13T05:41:48.113Z,1.77
2023-03-13T05:44:55.626Z,2.33
2023-03-13T05:47:43.855Z,6.93
2023-03-13T05:50:30.810Z,3.33
2023-03-13T05:53:38.052Z,4.03
2023-03-13T05:56:26.646Z,2.80
2023-03-13T05:59:18.328Z,2.60
2023-03-13T06:02:10.027Z,3.73
2023-03-13T06:04:43.388Z,3.47
2023-03-13T06:07:12.600Z,3.93
2023-03-13T06:09:41.503Z,2.17
2023-03-13T06:12:13.036Z,1.60
2023-03-13T06:14:41.606Z,2.07
2023-03-13T06:17:15.981Z,2.10
2023-03-13T06:19:44.431Z,3.33
2023-03-13T06:22:12.925Z,2.53
2023-03-13T06:24:41.353Z,1.40
2023-03-13T06:27:09.859Z,3.80
2023-03-13T06:29:39.894Z,1.93
2023-03-13T06:32:08.724Z,2.07
2023-03-13T06:34:40.041Z,2.23
2023-03-13T06:37:08.522Z,2.20
2023-03-13T06:39:36.953Z,1.73
2023-03-13T06:42:05.863Z,1.20
2023-03-13T06:44:34.293Z,0.97
2023-03-13T06:47:04.846Z,1.67
2023-03-13T06:49:33.496Z,2.23
2023-03-13T06:52:02.026Z,2.10
2023-03-13T06:54:30.647Z,2.13
2023-03-13T06:56:59.102Z,1.27
2023-03-13T06:59:27.687Z,2.47
2023-03-13T07:01:56.263Z,4.00
2023-03-13T07:04:26.362Z,1.10
2023-03-13T07:06:54.779Z,2.23
2023-03-13T07:09:23.427Z,4.33
2023-03-13T07:11:51.863Z,3.23
2023-03-13T07:14:20.388Z,1.10
2023-03-13T07:16:49.031Z,2.87
2023-03-13T07:19:18.015Z,2.10
2023-03-13T07:21:49.840Z,2.17
2023-03-13T07:24:18.696Z,0.87
2023-03-13T07:27:03.892Z,1.50
2023-03-13T07:29:33.334Z,2.47
2023-03-13T07:32:02.174Z,2.67
2023-03-13T07:34:30.689Z,1.70
2023-03-13T07:37:00.555Z,1.07
2023-03-13T07:39:28.928Z,2.30
2023-03-13T07:41:57.306Z,2.50
2023-03-13T07:44:26.087Z,1.33
2023-03-13T07:46:54.465Z,1.00
2023-03-13T07:49:22.947Z,2.20
2023-03-13T07:51:51.644Z,1.47
2023-03-13T07:54:21.621Z,1.97
2023-03-13T07:56:50.983Z,2.03
2023-03-13T07:59:19.440Z,1.53
2023-03-13T08:01:48.213Z,2.50
2023-03-13T08:04:18.282Z,2.80
2023-03-13T08:06:46.655Z,1.67
2023-03-13T08:09:15.131Z,2.17
2023-03-13T08:11:45.394Z,1.13
2023-03-13T08:14:14.233Z,3.03
2023-03-13T08:16:42.719Z,1.20
2023-03-13T08:19:12.000Z,3.97
2023-03-13T08:21:40.419Z,1.40
2023-03-13T08:24:10.672Z,0.90
2023-03-13T08:26:40.002Z,0.77
2023-03-13T08:29:10.728Z,2.78
2023-03-13T08:31:40.778Z,3.15
2023-03-13T08:34:09.195Z,1.98
2023-03-13T08:36:38.258Z,1.02
2023-03-13T08:39:07.676Z,2.90
2023-03-13T08:41:37.175Z,1.07
2023-03-13T08:44:06.242Z,2.33
2023-03-13T08:46:37.366Z,1.10
2023-03-13T08:49:06.429Z,2.13
2023-03-13T08:51:35.493Z,0.80
2023-03-13T08:54:05.106Z,2.47
2023-03-13T08:56:34.843Z,1.93
2023-03-13T08:59:05.548Z,1.67
2023-03-13T09:01:35.197Z,0.80
2023-03-13T09:04:05.490Z,2.40
2023-03-13T09:06:34.001Z,3.63
2023-03-13T09:09:02.905Z,2.47
2023-03-13T09:11:31.469Z,1.23
2023-03-13T09:14:00.332Z,0.60
2023-03-13T09:16:29.912Z,4.82
2023-03-13T09:18:58.914Z,1.35
2023-03-13T09:21:29.970Z,1.63
2023-03-13T09:23:59.029Z,1.25
2023-03-13T09:26:28.102Z,0.55
2023-03-13T09:28:57.273Z,1.83
2023-03-13T09:31:26.518Z,1.65
2023-03-13T09:33:55.102Z,0.75
2023-03-13T09:36:24.824Z,1.60
2023-03-13T09:38:55.623Z,2.50
2023-03-13T09:41:29.665Z,1.38
2023-03-13T09:44:02.587Z,1.58
2023-03-13T09:46:35.475Z,2.38
2023-03-13T09:49:05.911Z,3.20
2023-03-13T09:51:37.223Z,2.90
2023-03-13T09:54:10.197Z,1.52
2023-03-13T09:56:43.498Z,1.08
2023-03-13T09:59:17.021Z,3.65
2023-03-13T10:01:46.205Z,0.82
2023-03-13T10:04:23.373Z,2.25
2023-03-13T10:06:52.177Z,2.00
2023-03-13T10:09:30.780Z,1.70
2023-03-13T10:12:06.145Z,1.45
2023-03-13T10:14:40.411Z,1.50
2023-03-13T10:17:11.803Z,0.73
2023-03-13T10:19:43.517Z,0.50
2023-03-13T10:22:14.911Z,2.85
2023-03-13T10:24:48.533Z,1.02
2023-03-13T10:27:17.114Z,1.02
2023-03-13T10:29:45.680Z,1.95
2023-03-13T10:32:15.127Z,0.90
2023-03-13T10:34:48.220Z,2.53
2023-03-13T10:37:17.255Z,1.70
2023-03-13T10:39:47.053Z,1.45
2023-03-13T10:42:21.250Z,1.42
2023-03-13T10:44:49.931Z,1.83
2023-03-13T10:47:18.334Z,5.18
2023-03-13T10:49:50.781Z,6.63
2023-03-13T10:52:35.174Z,11.57
2023-03-13T10:55:07.620Z,7.50
2023-03-13T10:57:36.800Z,3.22
2023-03-13T11:00:11.338Z,2.80
2023-03-13T11:02:40.839Z,3.60
2023-03-13T11:05:24.310Z,4.07
2023-03-13T11:07:53.365Z,1.40
2023-03-13T11:10:25.556Z,2.42
2023-03-13T11:12:55.593Z,1.70
2023-03-13T11:15:26.588Z,2.90
2023-03-13T11:18:00.830Z,1.38
2023-03-13T11:20:30.014Z,2.67
2023-03-13T11:23:06.588Z,2.58
2023-03-13T11:25:39.504Z,1.58
2023-03-13T11:28:22.050Z,2.70
2023-03-13T11:30:58.632Z,4.57
2023-03-13T11:33:53.395Z,2.85
2023-03-13T11:36:25.625Z,3.13
2023-03-13T11:38:55.640Z,1.75
2023-03-13T11:41:33.262Z,6.47
2023-03-13T11:44:08.683Z,2.00
2023-03-13T11:46:45.720Z,3.45
2023-03-13T11:49:29.145Z,2.00
2023-03-13T11:52:04.493Z,2.63
2023-03-13T11:54:39.525Z,2.67
2023-03-13T11:57:13.400Z,1.67
2023-03-13T11:59:48.767Z,1.92
2023-03-13T12:02:20.799Z,2.33
2023-03-13T12:04:53.385Z,3.42
2023-03-13T12:07:25.028Z,2.08
2023-03-13T12:09:55.868Z,2.10
2023-03-13T12:12:33.397Z,3.25
2023-03-13T12:15:06.432Z,3.70
2023-03-13T12:17:36.013Z,2.92
2023-03-13T12:20:09.420Z,3.00
2023-03-13T12:22:40.461Z,3.72
2023-03-13T12:25:14.604Z,3.58
2023-03-13T12:27:47.710Z,5.72
2023-03-13T12:30:26.625Z,1.17
2023-03-13T12:32:59.630Z,4.40
2023-03-13T12:35:29.410Z,2.00
2023-03-13T12:38:03.624Z,2.78
2023-03-13T12:40:34.211Z,1.40
2023-03-13T12:43:06.355Z,1.38
2023-03-13T12:45:36.511Z,4.63
2023-03-13T12:48:25.224Z,2.42
2023-03-13T12:51:01.182Z,1.55
2023-03-13T12:53:38.577Z,1.98
2023-03-13T12:56:26.154Z,2.85
2023-03-13T12:58:58.306Z,1.55
2023-03-13T13:01:31.649Z,2.20
2023-03-13T13:04:01.921Z,2.53
2023-03-13T13:06:31.969Z,4.30
2023-03-13T13:09:08.379Z,2.22
2023-03-13T13:11:42.664Z,1.77
2023-03-13T13:14:25.972Z,5.03
2023-03-13T13:16:59.371Z,3.47
2023-03-13T13:19:46.211Z,4.65
2023-03-13T13:22:33.635Z,2.58
2023-03-13T13:25:02.883Z,1.77
2023-03-13T13:27:46.132Z,4.30
2023-03-13T13:30:32.651Z,2.95
2023-03-13T13:33:16.086Z,4.80
2023-03-13T13:35:46.500Z,4.13
2023-03-13T13:38:34.543Z,5.13
2023-03-13T13:41:05.171Z,2.72
2023-03-13T13:43:34.628Z,3.85
2023-03-13T13:46:06.071Z,3.20
2023-03-13T13:48:36.609Z,2.95
2023-03-13T13:51:26.296Z,2.35
2023-03-13T13:53:56.530Z,2.65
2023-03-13T13:56:32.418Z,4.65
2023-03-13T13:59:03.080Z,2.53
2023-03-13T14:01:32.012Z,4.28
2023-03-13T14:04:12.573Z,1.50
2023-03-13T14:06:45.621Z,3.22
2023-03-13T14:09:29.078Z,1.25
2023-03-13T14:11:57.856Z,1.55
2023-03-13T14:14:26.469Z,1.95
2023-03-13T14:17:00.502Z,4.35
2023-03-13T14:19:30.460Z,3.78
2023-03-13T14:22:04.460Z,0.65
2023-03-13T14:24:33.160Z,1.42
2023-03-13T14:27:01.691Z,4.40
2023-03-13T14:29:30.491Z,4.35
2023-03-13T14:32:01.067Z,2.03
2023-03-13T14:34:32.660Z,4.05
2023-03-13T14:37:17.313Z,2.53
2023-03-13T14:39:49.228Z,1.92
2023-03-13T14:42:20.988Z,1.10
2023-03-13T14:44:50.631Z,1.25
2023-03-13T14:47:23.221Z,3.08
2023-03-13T14:49:57.188Z,2.55
2023-03-13T14:52:26.037Z,2.03
2023-03-13T14:54:57.147Z,4.57
2023-03-13T14:57:27.696Z,2.50
2023-03-13T14:59:56.409Z,1.50
2023-03-13T15:02:26.409Z,2.25
2023-03-13T15:04:59.868Z,0.82
2023-03-13T15:07:29.053Z,1.17
2023-03-13T15:10:00.772Z,1.00
2023-03-13T15:12:30.560Z,2.63
2023-03-13T15:14:59.948Z,1.25
2023-03-13T15:17:29.889Z,2.45
2023-03-13T15:19:59.082Z,1.25
2023-03-13T15:22:29.978Z,0.47
2023-03-13T15:25:06.365Z,1.98
2023-03-13T15:27:37.573Z,1.67
2023-03-13T15:30:06.909Z,4.20
2023-03-13T15:32:36.607Z,4.78
2023-03-13T15:35:10.195Z,1.85
2023-03-13T15:37:39.952Z,1.02
2023-03-13T15:40:15.766Z,2.53
2023-03-13T15:42:44.696Z,0.85
2023-03-13T15:45:13.705Z,2.42
2023-03-13T15:47:43.639Z,1.42
2023-03-13T15:50:13.983Z,1.33
2023-03-13T15:52:42.826Z,1.00
2023-03-13T15:55:14.100Z,1.05
2023-03-13T15:57:44.091Z,2.05
2023-03-13T16:00:17.742Z,2.78
2023-03-13T16:02:46.118Z,1.10
2023-03-13T16:05:14.443Z,0.85
2023-03-13T16:07:42.864Z,3.58
2023-03-13T16:10:16.731Z,1.77
2023-03-13T16:12:45.376Z,2.55
2023-03-13T16:15:15.139Z,2.60
2023-03-13T16:17:43.610Z,2.63
2023-03-13T16:20:15.434Z,2.92
2023-03-13T16:22:43.938Z,2.67
2023-03-13T16:25:13.008Z,1.00
2023-03-13T16:27:44.715Z,2.10
2023-03-13T16:30:15.959Z,2.65
2023-03-13T16:32:44.962Z,1.40
2023-03-13T16:35:13.731Z,1.17
2023-03-13T16:37:42.621Z,2.63
2023-03-13T16:40:16.088Z,3.28
2023-03-13T16:42:46.095Z,1.65
2023-03-13T16:45:15.798Z,1.63
2023-03-13T16:47:44.899Z,3.03
2023-03-13T16:50:19.335Z,2.00
2023-03-13T16:52:47.831Z,1.15
2023-03-13T16:55:17.138Z,2.33
2023-03-13T16:57:47.342Z,3.60
2023-03-13T17:00:17.617Z,2.35
2023-03-13T17:02:46.665Z,1.95
2023-03-13T17:05:16.226Z,1.83
2023-03-13T17:07:45.656Z,1.75
2023-03-13T17:10:24.019Z,3.83
2023-03-13T17:12:56.372Z,3.75
2023-03-13T17:15:25.156Z,1.73
2023-03-13T17:17:54.302Z,5.47
2023-03-13T17:20:24.041Z,3.15
2023-03-13T17:22:52.634Z,1.80
2023-03-13T17:25:21.674Z,3.40
2023-03-13T17:27:50.439Z,2.13
2023-03-13T17:30:24.529Z,3.92
2023-03-13T17:32:55.816Z,2.05
2023-03-13T17:35:25.065Z,5.13
2023-03-13T17:37:53.525Z,2.35
2023-03-13T17:40:23.350Z,4.85
2023-03-13T17:42:52.776Z,3.03
2023-03-13T17:45:22.351Z,2.78
2023-03-13T17:47:54.415Z,2.78
2023-03-13T17:50:24.058Z,2.17
2023-03-13T17:52:52.669Z,5.50
2023-03-13T17:55:21.536Z,3.83
2023-03-13T17:57:49.999Z,3.72
2023-03-13T18:00:24.250Z,4.63
2023-03-13T18:02:54.877Z,5.10
2023-03-13T18:05:24.633Z,8.90
2023-03-13T18:07:53.734Z,5.70
2023-03-13T18:10:23.009Z,5.10
2023-03-13T18:12:51.903Z,7.90
2023-03-13T18:15:20.998Z,4.50
2023-03-13T18:17:49.426Z,3.20
2023-03-13T18:20:32.455Z,5.80
2023-03-13T18:23:01.012Z,6.93
2023-03-13T18:25:31.388Z,1.97
2023-03-13T18:28:00.457Z,5.80
2023-03-13T18:30:29.429Z,2.80
2023-03-13T18:32:58.116Z,2.13
2023-03-13T18:35:28.251Z,4.30
2023-03-13T18:37:56.747Z,2.37
2023-03-13T18:40:26.749Z,3.37
2023-03-13T18:42:55.340Z,1.20
2023-03-13T18:45:25.627Z,2.40
2023-03-13T18:47:54.242Z,3.27
2023-03-13T18:50:26.122Z,5.73
2023-03-13T18:52:56.953Z,1.90
2023-03-13T18:55:26.281Z,2.40
2023-03-13T18:57:55.431Z,1.93
2023-03-13T19:00:25.224Z,3.87
2023-03-13T19:02:54.075Z,3.80
2023-03-13T19:05:22.704Z,3.33
2023-03-13T19:07:52.037Z,5.27
2023-03-13T19:10:25.167Z,3.10
2023-03-13T19:12:54.308Z,3.63
2023-03-13T19:15:25.760Z,4.63
2023-03-13T19:17:56.183Z,6.03
2023-03-13T19:20:25.766Z,2.27
2023-03-13T19:22:55.958Z,3.20
2023-03-13T19:25:26.034Z,3.53
2023-03-13T19:27:54.519Z,5.13
2023-03-13T19:30:27.065Z,5.10
2023-03-13T19:32:55.581Z,4.73
2023-03-13T19:35:24.219Z,3.83
2023-03-13T19:37:52.665Z,2.30
2023-03-13T19:40:21.739Z,4.33
2023-03-13T19:42:51.707Z,5.20
2023-03-13T19:45:21.901Z,2.63
2023-03-13T19:47:50.976Z,5.90
2023-03-13T19:50:20.944Z,4.10
2023-03-13T19:52:49.412Z,3.37
2023-03-13T19:55:18.185Z,2.70
2023-03-13T19:57:48.267Z,4.43
2023-03-13T20:00:21.292Z,4.53
2023-03-13T20:02:49.928Z,4.47
2023-03-13T20:05:18.478Z,2.83
2023-03-13T20:07:48.271Z,4.20
2023-03-13T20:10:17.040Z,3.07
2023-03-13T20:12:45.496Z,3.90
2023-03-13T20:15:13.983Z,4.27
2023-03-13T20:17:43.809Z,4.73
2023-03-13T20:20:13.751Z,5.23
2023-03-13T20:22:42.544Z,4.97
2023-03-13T20:25:11.505Z,5.47
2023-03-13T20:27:40.208Z,3.23
2023-03-13T20:30:09.437Z,3.23
2023-03-13T20:32:41.196Z,3.97
2023-03-13T20:35:15.929Z,3.13
2023-03-13T20:37:45.038Z,5.83
2023-03-13T20:40:14.016Z,4.97
2023-03-13T20:42:42.524Z,5.63
2023-03-13T20:45:11.080Z,4.40
2023-03-13T20:47:39.786Z,5.93
2023-03-13T20:50:08.962Z,5.03
2023-03-13T20:52:39.076Z,6.87
2023-03-13T20:55:07.614Z,5.47
2023-03-13T20:57:37.323Z,4.60
2023-03-13T21:00:07.018Z,8.43
2023-03-13T21:02:35.515Z,6.43
2023-03-13T21:05:04.214Z,5.37
2023-03-13T21:07:32.664Z,5.83
2023-03-13T21:10:02.651Z,6.37
2023-03-13T21:12:31.075Z,6.07
2023-03-13T21:14:59.616Z,9.93
2023-03-13T21:17:28.270Z,8.07
2023-03-13T21:19:57.013Z,6.47
2023-03-13T21:22:28.477Z,7.00
2023-03-13T21:24:57.269Z,5.87
2023-03-13T21:27:27.337Z,4.27
2023-03-13T21:29:55.723Z,6.07
2023-03-13T21:32:24.263Z,5.47
2023-03-13T21:34:52.740Z,4.90
2023-03-13T21:37:21.233Z,8.20
2023-03-13T21:39:51.670Z,4.23
2023-03-13T21:42:20.297Z,4.83
2023-03-13T21:44:50.024Z,2.40
2023-03-13T21:47:24.230Z,4.00
2023-03-13T21:49:52.733Z,8.80
2023-03-13T21:52:21.342Z,1.80
2023-03-13T21:54:49.905Z,1.17
2023-03-13T21:57:18.876Z,2.93
2023-03-13T21:59:47.232Z,1.83
2023-03-13T22:02:16.971Z,2.47
2023-03-13T22:04:45.379Z,1.33
2023-03-13T22:07:13.758Z,1.27
2023-03-13T22:09:42.208Z,1.13
2023-03-13T22:12:10.764Z,0.90
2023-03-13T22:14:39.242Z,0.90
2023-03-13T22:17:08.064Z,1.47
2023-03-13T22:19:37.915Z,0.67
2023-03-13T22:22:06.272Z,1.13
2023-03-13T22:24:34.803Z,1.10
2023-03-13T22:27:03.406Z,1.47
2023-03-13T22:29:32.522Z,0.47
2023-03-13T22:32:00.925Z,0.90
2023-03-13T22:34:29.716Z,1.47
2023-03-13T22:36:59.501Z,3.30
2023-03-13T22:39:27.856Z,0.73
2023-03-13T22:41:56.270Z,1.03
2023-03-13T22:44:24.773Z,2.37
2023-03-13T22:46:53.139Z,0.83
2023-03-13T22:49:21.526Z,2.97
2023-03-13T22:51:49.600Z,0.97
2023-03-13T22:54:20.342Z,2.17
2023-03-13T22:56:48.721Z,2.60
2023-03-13T22:59:17.256Z,1.67
2023-03-13T23:01:45.614Z,0.70
2023-03-13T23:04:14.217Z,1.53
2023-03-13T23:06:42.575Z,1.83
2023-03-13T23:09:10.961Z,1.40
2023-03-13T23:11:40.693Z,3.70
2023-03-13T23:14:09.094Z,0.90
2023-03-13T23:16:37.661Z,2.87
2023-03-13T23:19:07.343Z,2.30
2023-03-13T23:21:35.794Z,1.57
2023-03-13T23:24:04.218Z,1.17
2023-03-13T23:26:32.572Z,2.80
2023-03-13T23:29:02.355Z,1.07
2023-03-13T23:31:30.720Z,2.47
2023-03-13T23:33:59.763Z,1.87
2023-03-13T23:36:28.308Z,0.83
2023-03-13T23:38:58.361Z,0.90
2023-03-13T23:41:27.007Z,1.70
2023-03-13T23:43:55.385Z,2.63
2023-03-13T23:46:26.956Z,1.10
2023-03-13T23:48:55.674Z,0.67
2023-03-13T23:51:24.673Z,0.80
2023-03-13T23:53:53.357Z,0.80
2023-03-13T23:56:22.019Z,1.33
2023-03-13T23:58:50.401Z,1.90
